Time;durP1;ratioP1;P1;durP2;ratioP2;P2;SDS_P1;SDS_P2;PMS_P1;PMS_P2;Temp;Humidity;BMP_temperature;BMP_pressure;BME280_temperature;BME280_humidity;BME280_pressure;Samples;Min_cycle;Max_cycle;Signal;HPM_P1;HPM_P2
2022/04/16 00:01:43;;;;;;;25.88;12.50;;;;;;;12.39;64.49;99639.05;1734842;82;21081;-71
2022/04/16 00:04:10;;;;;;;27.27;13.13;;;;;;;12.37;63.98;99624.22;1735033;82;21140;-70
2022/04/16 00:06:37;;;;;;;23.45;12.90;;;;;;;12.35;64.36;99637.52;1734793;82;21051;-71
2022/04/16 00:09:03;;;;;;;24.25;11.97;;;;;;;12.31;65.05;99645.20;1734510;82;21026;-71
2022/04/16 00:11:30;;;;;;;21.93;13.03;;;;;;;12.27;65.58;99642.80;1734476;82;21085;-71
2022/04/16 00:13:57;;;;;;;26.52;12.75;;;;;;;12.24;66.25;99637.66;1734461;82;21101;-70
2022/04/16 00:16:23;;;;;;;29.40;13.32;;;;;;;12.22;66.69;99621.92;1734459;82;21507;-71
2022/04/16 00:18:50;;;;;;;23.20;12.03;;;;;;;12.19;66.54;99628.66;1734347;82;21037;-70
2022/04/16 00:21:17;;;;;;;21.15;12.45;;;;;;;12.18;67.12;99634.89;1734541;82;21041;-70
2022/04/16 00:23:46;;;;;;;26.07;13.03;;;;;;;12.17;67.02;99641.11;1734520;82;22094;-70
2022/04/16 00:26:14;;;;;;;22.58;12.40;;;;;;;12.15;67.42;99631.09;1734380;82;21023;-69
2022/04/16 00:28:42;;;;;;;21.17;11.90;;;;;;;12.11;68.78;99644.05;1734321;82;21089;-71
2022/04/16 00:31:10;;;;;;;20.52;12.45;;;;;;;12.08;68.92;99648.18;1734450;82;21073;-69
2022/04/16 00:33:37;;;;;;;24.82;11.90;;;;;;;12.05;68.83;99657.55;1734550;82;21011;-70
2022/04/16 00:36:04;;;;;;;23.27;12.35;;;;;;;12.04;69.34;99657.18;1734631;82;21027;-69
2022/04/16 00:38:32;;;;;;;20.97;11.10;;;;;;;12.00;70.01;99649.87;1734625;82;21038;-70
2022/04/16 00:41:02;;;;;;;21.97;11.25;;;;;;;11.98;70.15;99669.35;1734186;82;21334;-71
2022/04/16 00:43:29;;;;;;;22.40;12.10;;;;;;;11.94;70.29;99673.48;1734313;82;21097;-69
2022/04/16 00:45:56;;;;;;;21.12;12.47;;;;;;;11.92;70.75;99679.29;1734399;82;21030;-72
2022/04/16 00:48:26;;;;;;;18.10;11.85;;;;;;;11.86;71.15;99679.55;1734551;82;21034;-69
2022/04/16 00:50:54;;;;;;;25.52;12.75;;;;;;;11.82;71.04;99674.50;1733904;82;21046;-69
2022/04/16 00:53:22;;;;;;;23.20;12.60;;;;;;;11.78;71.71;99679.09;1734817;82;21120;-71
2022/04/16 00:55:49;;;;;;;27.45;14.10;;;;;;;11.72;72.23;99672.79;1736909;81;21069;-69
2022/04/16 00:58:15;;;;;;;27.25;14.87;;;;;;;11.67;72.74;99664.25;1748338;81;21045;-70
2022/04/16 01:00:43;;;;;;;33.98;15.00;;;;;;;11.63;73.81;99651.66;1748350;81;21013;-68
2022/04/16 01:03:10;;;;;;;32.35;14.85;;;;;;;11.59;74.76;99647.47;1748454;81;21112;-70
2022/04/16 01:05:38;;;;;;;28.90;14.80;;;;;;;11.52;75.03;99652.17;1748288;81;21021;-69
2022/04/16 01:08:08;;;;;;;22.25;12.70;;;;;;;11.46;76.39;99676.23;1748317;82;20990;-70
2022/04/16 01:10:36;;;;;;;29.63;13.53;;;;;;;11.40;77.24;99694.97;1748287;81;21026;-70
2022/04/16 01:13:05;;;;;;;28.77;14.70;;;;;;;11.36;77.11;99674.09;1748609;81;21029;-70
2022/04/16 01:15:32;;;;;;;24.50;13.45;;;;;;;11.30;77.48;99668.19;1748321;81;21013;-70
2022/04/16 01:18:02;;;;;;;29.27;14.75;;;;;;;11.27;77.73;99649.02;1748392;82;21257;-69
2022/04/16 01:20:29;;;;;;;23.30;12.23;;;;;;;11.21;78.64;99640.10;1748403;82;21093;-71
2022/04/16 01:22:58;;;;;;;23.65;12.53;;;;;;;11.12;78.56;99669.91;1748640;81;21538;-70
2022/04/16 01:25:27;;;;;;;27.80;13.78;;;;;;;11.08;80.05;99675.39;1748251;82;21085;-68
2022/04/16 01:27:55;;;;;;;22.95;12.53;;;;;;;11.04;79.49;99672.50;1730811;81;21057;-71
2022/04/16 01:30:23;;;;;;;22.77;11.88;;;;;;;11.00;80.06;99673.59;1718662;83;21186;-70
2022/04/16 01:32:49;;;;;;;20.77;11.55;;;;;;;10.98;79.85;99682.02;1718767;83;21444;-70
2022/04/16 01:35:17;;;;;;;21.25;11.90;;;;;;;10.97;79.90;99682.92;1718724;83;21025;-70
2022/04/16 01:37:43;;;;;;;24.27;12.88;;;;;;;10.92;80.26;99680.03;1718962;83;21037;-70
2022/04/16 01:40:14;;;;;;;22.77;12.80;;;;;;;10.90;81.18;99663.91;1718647;83;21080;-70
2022/04/16 01:42:43;;;;;;;21.00;12.80;;;;;;;10.88;81.06;99648.19;1718603;83;21525;-70
2022/04/16 01:45:11;;;;;;;24.87;13.88;;;;;;;10.87;81.19;99645.62;1718545;83;21057;-70
2022/04/16 01:47:39;;;;;;;22.37;13.18;;;;;;;10.85;82.34;99629.03;1718496;83;21077;-70
2022/04/16 01:50:10;;;;;;;23.38;13.55;;;;;;;10.78;82.66;99649.52;1718494;83;21034;-70
2022/04/16 01:52:38;;;;;;;22.87;13.08;;;;;;;10.74;82.89;99647.94;1718638;83;21076;-69
2022/04/16 01:55:07;;;;;;;21.82;13.10;;;;;;;10.71;83.68;99654.20;1718992;83;21194;-70
2022/04/16 01:57:34;;;;;;;21.52;12.00;;;;;;;10.67;84.49;99652.66;1718477;83;21382;-70
2022/04/16 02:00:01;;;;;;;23.35;12.85;;;;;;;10.65;85.85;99659.77;1718434;83;21101;-71
2022/04/16 02:02:29;;;;;;;19.85;11.97;;;;;;;10.59;85.66;99665.30;1718446;83;21581;-70
2022/04/16 02:04:56;;;;;;;17.37;11.38;;;;;;;10.55;85.44;99668.98;1718450;83;21041;-70
2022/04/16 02:07:23;;;;;;;23.60;13.10;;;;;;;10.53;85.51;99677.41;1718659;83;21577;-70
2022/04/16 02:09:50;;;;;;;22.13;13.78;;;;;;;10.52;85.94;99674.40;1718563;83;21057;-70
2022/04/16 02:12:17;;;;;;;24.60;13.93;;;;;;;10.50;87.02;99668.34;1718569;83;21521;-70
2022/04/16 02:14:43;;;;;;;24.77;14.30;;;;;;;10.50;86.66;99670.98;1718710;83;21542;-69
2022/04/16 02:17:10;;;;;;;24.67;16.25;;;;;;;10.48;87.41;99671.50;1718737;83;21064;-69
2022/04/16 02:19:39;;;;;;;23.92;14.73;;;;;;;10.46;87.19;99673.34;1718492;83;21104;-70
2022/04/16 02:22:07;;;;;;;27.05;15.78;;;;;;;10.44;87.43;99672.55;1718589;83;21061;-69
2022/04/16 02:24:36;;;;;;;29.00;16.80;;;;;;;10.42;87.68;99672.64;1718515;83;21069;-70
2022/04/16 02:27:04;;;;;;;27.95;17.55;;;;;;;10.42;88.38;99670.44;1725470;82;21093;-71
2022/04/16 02:29:34;;;;;;;29.07;16.90;;;;;;;10.40;89.30;99675.80;1748405;81;21025;-69
2022/04/16 02:32:03;;;;;;;28.80;18.10;;;;;;;10.37;89.98;99681.17;1748387;81;21234;-70
2022/04/16 02:34:29;;;;;;;35.35;18.02;;;;;;;10.37;90.24;99689.53;1748304;81;21018;-70
2022/04/16 02:36:58;;;;;;;34.75;20.10;;;;;;;10.35;90.07;99699.27;1748656;81;21536;-70
2022/04/16 02:39:25;;;;;;;40.67;21.90;;;;;;;10.34;90.65;99697.58;1748273;81;21005;-69
2022/04/16 02:41:52;;;;;;;38.65;20.12;;;;;;;10.33;91.65;99701.11;1748391;82;21033;-70
2022/04/16 02:47:05;;;;;;;39.03;19.92;;;;;;;10.32;91.19;99700.73;1748202;82;21049;-70
2022/04/16 02:49:36;;;;;;;36.28;19.67;;;;;;;10.31;91.36;99696.37;1748123;81;21053;-70
2022/04/16 02:52:06;;;;;;;41.15;22.20;;;;;;;10.27;91.95;99696.48;1748388;82;21005;-70
2022/04/16 02:54:35;;;;;;;;;;;;;;;10.28;91.75;99699.55;1751035;81;21022;-71
2022/04/16 02:57:01;;;;;;;42.48;21.30;;;;;;;10.29;92.50;99706.98;1743268;81;20761;-71
2022/04/16 02:59:29;;;;;;;47.00;24.40;;;;;;;10.27;92.76;99707.00;1734375;82;21542;-70
2022/04/16 03:01:58;;;;;;;47.90;24.63;;;;;;;10.27;93.07;99710.95;1734310;82;22230;-70
2022/04/16 03:04:26;;;;;;;54.98;24.32;;;;;;;10.27;93.12;99704.37;1734288;82;21082;-71
2022/04/16 03:06:55;;;;;;;49.77;25.27;;;;;;;10.28;92.75;99700.88;1734401;82;21560;-71
2022/04/16 03:09:22;;;;;;;41.83;23.98;;;;;;;10.31;93.25;99696.37;1734277;82;22078;-70
2022/04/16 03:11:49;;;;;;;48.63;25.08;;;;;;;10.31;93.33;99709.53;1734275;82;21066;-70
2022/04/16 03:19:46;;;;;;;51.18;25.00;;;;;;;10.31;93.38;99725.32;1734151;82;21077;-70
2022/04/16 03:22:13;;;;;;;51.37;25.08;;;;;;;10.31;93.39;99724.00;1734309;82;21204;-69
2022/04/16 03:24:40;;;;;;;54.45;26.97;;;;;;;10.31;93.37;99725.32;1734259;82;21157;-69
2022/04/16 03:27:08;;;;;;;49.15;26.93;;;;;;;10.29;93.58;99723.62;1726776;82;21035;-69
2022/04/16 03:29:34;;;;;;;50.83;26.73;;;;;;;10.31;93.78;99727.95;1705047;83;21054;-71
2022/04/16 03:32:01;;;;;;;49.75;26.05;;;;;;;10.31;94.21;99725.32;1705162;83;21102;-69
2022/04/16 03:34:27;;;;;;;48.00;26.85;;;;;;;10.31;94.10;99720.05;1705089;84;21226;-71
2022/04/16 03:36:54;;;;;;;54.90;26.65;;;;;;;10.31;94.41;99724.00;1705119;84;21521;-70
2022/04/16 03:39:21;;;;;;;49.23;26.17;;;;;;;10.29;93.96;99722.30;1704989;84;21025;-71
2022/04/16 03:41:48;;;;;;;47.93;25.17;;;;;;;10.31;93.59;99721.38;1705049;84;21025;-70
2022/04/16 03:44:15;;;;;;;48.87;24.65;;;;;;;10.34;94.06;99719.95;1705166;84;21043;-69
2022/04/16 03:46:43;;;;;;;48.20;26.77;;;;;;;10.33;94.09;99720.85;1705029;83;21431;-71
2022/04/16 03:49:10;;;;;;;46.65;24.05;;;;;;;10.34;94.56;99730.48;1705370;84;21093;-72
2022/04/16 03:51:38;;;;;;;42.73;23.45;;;;;;;10.33;93.94;99728.75;1705168;83;21027;-70
2022/04/16 04:02:23;;;;;;;41.65;21.10;;;;;;;10.34;94.48;99733.11;1704994;83;21054;-69
2022/04/16 04:04:50;;;;;;;38.80;21.80;;;;;;;10.36;93.90;99731.27;1705136;83;21081;-70
2022/04/16 04:07:18;;;;;;;35.08;21.05;;;;;;;10.37;93.68;99735.59;1704921;83;21074;-70
2022/04/16 04:09:46;;;;;;;38.80;21.97;;;;;;;10.38;94.12;99733.38;1705008;84;21086;-70
2022/04/16 04:12:15;;;;;;;37.15;22.40;;;;;;;10.41;94.34;99734.55;1705106;83;21097;-71
2022/04/16 04:14:44;;;;;;;35.05;21.12;;;;;;;10.44;93.98;99733.09;1704695;83;21026;-70
2022/04/16 04:17:13;;;;;;;39.95;22.50;;;;;;;10.47;93.79;99730.36;1704588;83;21113;-70
2022/04/16 04:19:42;;;;;;;30.92;19.95;;;;;;;10.50;93.92;99731.53;1704717;84;21121;-70
2022/04/16 04:22:14;;;;;;;38.45;21.27;;;;;;;10.52;93.63;99734.95;1705089;83;22019;-70
2022/04/16 04:24:43;;;;;;;33.78;21.05;;;;;;;10.56;93.74;99735.66;1704615;83;21215;-69
2022/04/16 04:27:10;;;;;;;35.30;21.02;;;;;;;10.58;94.04;99740.41;1712916;82;21078;-71
2022/04/16 04:29:36;;;;;;;34.03;17.85;;;;;;;10.61;93.27;99742.45;1734394;82;21062;-70
2022/04/16 04:32:06;;;;;;;35.40;20.57;;;;;;;10.64;93.32;99742.31;1734229;82;21117;-69
2022/04/16 04:34:33;;;;;;;33.30;17.75;;;;;;;10.68;93.53;99741.27;1734828;82;21065;-73
2022/04/16 04:37:00;;;;;;;37.90;20.68;;;;;;;10.75;92.75;99743.64;1734271;82;21233;-70
2022/04/16 04:39:27;;;;;;;32.38;20.68;;;;;;;10.80;92.13;99741.66;1734213;82;21041;-71
2022/04/16 04:41:53;;;;;;;28.55;17.05;;;;;;;10.83;91.35;99733.60;1734409;82;21082;-71
2022/04/16 04:44:21;;;;;;;34.90;20.80;;;;;;;10.86;90.70;99728.22;1734360;82;21086;-70
2022/04/16 04:46:47;;;;;;;35.43;20.52;;;;;;;10.91;90.96;99728.86;1734441;82;21090;-71
2022/04/16 04:49:15;;;;;;;39.45;21.97;;;;;;;10.95;90.13;99730.44;1734276;82;21175;-71
2022/04/16 04:51:42;;;;;;;35.83;21.15;;;;;;;10.98;90.29;99734.72;1734089;82;21024;-71
2022/04/16 04:54:08;;;;;;;30.10;19.92;;;;;;;10.97;89.67;99728.56;1734217;82;21042;-69
2022/04/16 04:56:35;;;;;;;40.67;21.57;;;;;;;10.99;89.61;99730.67;1734205;82;21029;-70
2022/04/16 04:59:02;;;;;;;35.00;20.35;;;;;;;11.02;90.22;99737.14;1734426;82;20994;-71
2022/04/16 05:01:29;;;;;;;31.35;19.80;;;;;;;10.99;89.83;99731.14;1734193;82;21014;-69
2022/04/16 05:03:56;;;;;;;32.95;20.62;;;;;;;11.01;89.63;99734.56;1734451;82;21094;-71
2022/04/16 05:06:23;;;;;;;31.27;20.37;;;;;;;11.02;89.59;99737.14;1734392;82;21094;-70
2022/04/16 05:08:51;;;;;;;30.90;20.30;;;;;;;11.04;89.54;99736.61;1734452;82;21030;-72
2022/04/16 05:11:18;;;;;;;31.07;20.45;;;;;;;11.05;89.04;99734.36;1734471;82;21026;-70
2022/04/16 05:13:46;;;;;;;27.67;17.75;;;;;;;11.04;89.65;99738.38;1734388;82;22114;-70
2022/04/16 05:16:13;;;;;;;33.88;20.08;;;;;;;11.04;89.08;99731.34;1734319;82;21030;-72
2022/04/16 05:18:43;;;;;;;33.33;19.27;;;;;;;11.08;89.41;99735.52;1734239;82;21065;-71
2022/04/16 05:21:11;;;;;;;33.50;20.27;;;;;;;11.13;89.04;99732.69;1734290;82;21014;-71
2022/04/16 05:23:39;;;;;;;25.20;17.12;;;;;;;11.18;88.81;99725.88;1734346;82;21479;-71
2022/04/16 05:26:11;;;;;;;28.12;17.17;;;;;;;11.27;88.12;99728.97;1734336;82;20995;-70
2022/04/16 05:28:38;;;;;;;52.03;19.95;;;;;;;11.34;87.30;99721.61;1690559;83;21074;-70
2022/04/16 05:31:06;;;;;;;25.68;17.57;;;;;;;11.45;87.56;99720.64;1707370;84;21049;-69
2022/04/16 05:36:19;;;;;;;26.85;17.15;;;;;;;11.72;86.07;99718.95;1707265;83;21097;-69
2022/04/16 05:38:46;;;;;;;24.45;17.42;;;;;;;11.83;85.24;99721.92;1707498;83;21163;-70
2022/04/16 05:41:13;;;;;;;25.40;17.75;;;;;;;11.99;84.86;99718.58;1707469;84;21565;-70
2022/04/16 05:43:40;;;;;;;25.32;15.98;;;;;;;12.13;84.04;99722.70;1707314;84;21955;-71
2022/04/16 05:46:06;;;;;;;27.62;16.42;;;;;;;12.31;83.51;99712.53;1707466;84;21563;-72
2022/04/16 05:48:33;;;;;;;27.40;16.35;;;;;;;12.56;82.38;99719.17;1707518;83;21149;-70
2022/04/16 05:51:00;;;;;;;20.50;15.53;;;;;;;12.71;80.83;99721.03;1707559;84;21850;-72
2022/04/16 05:53:27;;;;;;;23.62;13.68;;;;;;;12.86;79.78;99718.52;1707654;84;21057;-71
2022/04/16 05:55:53;;;;;;;21.15;14.65;;;;;;;12.96;77.83;99719.75;1707407;83;21010;-71
2022/04/16 05:58:20;;;;;;;22.93;14.05;;;;;;;12.99;77.87;99720.89;1707394;83;21046;-70
2022/04/16 06:00:48;;;;;;;21.00;14.87;;;;;;;13.04;77.79;99725.45;1716108;82;21542;-70
2022/04/16 06:03:15;;;;;;;23.38;15.13;;;;;;;13.11;76.48;99724.22;1734283;82;21325;-71
2022/04/16 06:05:43;;;;;;;22.30;13.40;;;;;;;13.15;76.32;99725.73;1734001;82;21138;-71
2022/04/16 06:08:10;;;;;;;20.25;15.13;;;;;;;13.18;76.16;99726.91;1734081;82;22226;-71
2022/04/16 06:10:38;;;;;;;23.67;15.35;;;;;;;13.34;75.88;99730.06;1734033;82;21019;-71
2022/04/16 06:13:05;;;;;;;21.15;14.70;;;;;;;13.70;75.18;99739.08;1734328;82;21134;-69
2022/04/16 06:15:32;;;;;;;23.67;15.08;;;;;;;13.98;72.88;99741.48;1734068;82;21115;-70
2022/04/16 06:17:58;;;;;;;23.35;14.60;;;;;;;14.09;71.56;99743.52;1734145;82;21030;-71
2022/04/16 06:20:26;;;;;;;25.85;16.80;;;;;;;14.02;70.72;99729.78;1734316;82;21570;-70
2022/04/16 06:22:54;;;;;;;22.67;16.37;;;;;;;13.90;71.29;99731.34;1734209;82;20998;-70
2022/04/16 06:25:22;;;;;;;22.82;15.90;;;;;;;13.84;71.93;99733.00;1734214;82;21054;-70
2022/04/16 06:27:49;;;;;;;23.10;16.32;;;;;;;13.81;71.64;99741.13;1734219;82;21227;-69
2022/04/16 06:30:15;;;;;;;22.32;15.58;;;;;;;13.78;71.80;99737.31;1734409;82;21105;-71
2022/04/16 06:32:42;;;;;;;22.52;15.98;;;;;;;13.77;71.56;99740.91;1734365;82;21014;-70
2022/04/16 06:35:12;;;;;;;24.63;16.10;;;;;;;13.66;71.72;99737.53;1734123;82;21029;-71
2022/04/16 06:37:39;;;;;;;23.10;15.63;;;;;;;13.57;72.32;99744.22;1734204;82;21098;-71
2022/04/16 06:40:07;;;;;;;22.98;14.85;;;;;;;13.59;71.77;99740.14;1734621;82;21273;-72
2022/04/16 06:42:34;;;;;;;23.02;15.48;;;;;;;13.63;71.13;99741.20;1734097;82;20980;-70
2022/04/16 06:45:00;;;;;;;26.48;16.95;;;;;;;13.68;71.41;99748.05;1734621;82;21532;-71
2022/04/16 06:47:33;;;;;;;27.90;16.55;;;;;;;13.66;70.94;99744.15;1734202;82;21022;-71
2022/04/16 06:49:57;;;;;;;22.27;15.13;;;;;;;13.56;70.74;99745.61;1733038;82;21110;-69
2022/04/16 06:52:24;;;;;;;24.07;15.90;;;;;;;13.51;70.62;99747.67;1734018;82;21265;-70
2022/04/16 06:54:51;;;;;;;23.40;15.83;;;;;;;13.43;70.32;99757.33;1734183;82;21093;-70
2022/04/16 06:57:17;;;;;;;23.10;17.02;;;;;;;13.25;71.57;99755.64;1734114;82;21133;-71
2022/04/16 06:59:44;;;;;;;23.55;16.20;;;;;;;13.13;72.89;99756.69;1747602;81;21010;-70
2022/04/16 07:02:10;;;;;;;24.10;16.67;;;;;;;13.01;72.76;99754.71;1748332;81;22201;-69
2022/04/16 07:04:40;;;;;;;26.68;16.80;;;;;;;13.05;73.91;99764.67;1748405;81;21134;-70
2022/04/16 07:07:10;;;;;;;25.62;17.37;;;;;;;13.05;74.28;99759.38;1748419;82;21053;-71
2022/04/16 07:09:41;;;;;;;25.08;16.60;;;;;;;13.01;73.69;99767.92;1748493;81;21041;-70
2022/04/16 07:12:10;;;;;;;23.80;16.07;;;;;;;12.90;74.78;99767.63;1748102;81;21029;-70
2022/04/16 07:14:38;;;;;;;25.15;17.37;;;;;;;12.78;75.29;99767.33;1748519;81;22240;-70
2022/04/16 07:17:07;;;;;;;23.85;16.70;;;;;;;12.71;75.74;99765.95;1747950;81;21710;-70
2022/04/16 07:19:35;;;;;;;28.90;18.62;;;;;;;12.68;75.83;99771.41;1748466;82;21014;-72
2022/04/16 07:22:03;;;;;;;31.55;18.60;;;;;;;12.66;76.62;99767.98;1748582;82;21002;-71
2022/04/16 07:24:30;;;;;;;25.95;15.72;;;;;;;12.64;76.46;99765.88;1748392;82;21098;-69
2022/04/16 07:26:57;;;;;;;24.87;17.80;;;;;;;12.69;76.21;99766.97;1742606;81;21104;-70
2022/04/16 07:29:26;;;;;;;19.80;14.90;;;;;;;12.71;75.84;99768.59;1718771;83;21836;-70
2022/04/16 07:31:54;;;;;;;26.80;19.30;;;;;;;12.75;75.37;99770.15;1718754;83;21727;-72
2022/04/16 07:34:20;;;;;;;23.35;16.93;;;;;;;12.82;74.84;99769.84;1718618;83;21593;-71
2022/04/16 07:36:46;;;;;;;24.65;15.60;;;;;;;12.82;74.50;99763.23;1718686;83;22104;-71
2022/04/16 07:39:13;;;;;;;18.57;13.28;;;;;;;12.86;74.86;99766.95;1718558;83;21065;-70
2022/04/16 07:41:41;;;;;;;26.07;16.73;;;;;;;12.96;74.42;99775.25;1718416;83;21620;-70
2022/04/16 07:44:08;;;;;;;26.45;17.52;;;;;;;13.09;73.15;99772.80;1718535;83;21057;-70
2022/04/16 07:46:35;;;;;;;26.42;17.73;;;;;;;13.18;73.05;99773.19;1718847;83;22134;-71
2022/04/16 07:49:02;;;;;;;30.00;19.35;;;;;;;13.28;72.58;99770.92;1718593;83;21091;-71
2022/04/16 07:51:29;;;;;;;26.82;17.90;;;;;;;13.31;72.28;99774.72;1718620;83;21057;-71
2022/04/16 07:53:58;;;;;;;25.90;17.48;;;;;;;13.40;72.19;99769.41;1718492;83;21234;-72
2022/04/16 07:56:25;;;;;;;22.73;16.40;;;;;;;13.61;71.82;99776.16;1718375;83;21029;-70
2022/04/16 07:58:54;;;;;;;28.50;18.52;;;;;;;13.89;70.48;99774.61;1718751;83;21497;-71
2022/04/16 08:01:20;;;;;;;30.05;17.70;;;;;;;14.21;68.25;99771.93;1718410;83;21368;-71
2022/04/16 08:03:47;;;;;;;31.90;17.85;;;;;;;14.51;66.94;99760.48;1718796;83;21058;-70
2022/04/16 08:06:14;;;;;;;25.08;16.90;;;;;;;14.68;65.44;99768.33;1718730;83;21426;-71
2022/04/16 08:08:42;;;;;;;23.85;16.07;;;;;;;14.79;64.77;99763.70;1718512;83;21077;-71
2022/04/16 08:11:11;;;;;;;25.77;16.67;;;;;;;14.83;64.04;99765.22;1718554;83;21604;-71
2022/04/16 08:13:38;;;;;;;19.77;15.18;;;;;;;14.87;63.29;99768.08;1718770;83;21017;-71
2022/04/16 08:16:07;;;;;;;22.35;15.28;;;;;;;14.86;62.89;99764.58;1718695;83;21069;-70
2022/04/16 08:18:36;;;;;;;22.85;15.23;;;;;;;14.82;62.42;99760.40;1718467;83;21120;-71
2022/04/16 08:21:03;;;;;;;20.72;13.55;;;;;;;14.81;62.35;99767.95;1718593;83;21103;-72
2022/04/16 08:23:29;;;;;;;18.95;13.08;;;;;;;14.82;60.98;99765.70;1718667;83;21093;-71
2022/04/16 08:25:56;;;;;;;19.67;12.70;;;;;;;14.85;60.80;99767.31;1718454;83;21085;-70
2022/04/16 08:28:24;;;;;;;18.57;13.10;;;;;;;14.90;60.91;99772.70;1742286;82;21045;-70
2022/04/16 08:30:51;;;;;;;17.42;13.00;;;;;;;15.01;61.20;99767.23;1748379;81;21135;-71
2022/04/16 08:33:18;;;;;;;17.12;12.30;;;;;;;15.20;60.62;99774.42;1748148;82;20989;-71
2022/04/16 08:35:49;;;;;;;15.15;11.08;;;;;;;15.59;60.45;99764.91;1748666;82;21041;-71
2022/04/16 08:38:17;;;;;;;17.23;11.35;;;;;;;15.94;57.15;99775.09;1748353;81;20950;-71
2022/04/16 08:40:45;;;;;;;18.82;11.95;;;;;;;16.43;55.10;99765.24;1748358;81;21495;-71
2022/04/16 08:43:12;;;;;;;15.93;11.48;;;;;;;16.91;54.57;99762.89;1748538;81;22115;-71
2022/04/16 08:45:38;;;;;;;15.80;11.03;;;;;;;17.44;53.38;99762.73;1748229;82;22105;-71
2022/04/16 08:48:06;;;;;;;15.13;9.90;;;;;;;18.06;49.91;99759.16;1748463;82;20994;-70
2022/04/16 08:50:34;;;;;;;12.63;9.93;;;;;;;18.56;49.03;99753.16;1748427;81;21049;-70
2022/04/16 08:53:01;;;;;;;12.75;9.38;;;;;;;18.72;47.34;99758.66;1721242;82;21591;-70
2022/04/16 08:55:30;;;;;;;12.95;9.68;;;;;;;18.68;46.23;99762.52;1748525;82;21151;-71
2022/04/16 08:57:57;;;;;;;14.35;9.48;;;;;;;18.58;46.50;99751.22;1748540;82;21046;-72
2022/04/16 09:00:24;;;;;;;13.20;9.23;;;;;;;18.40;46.26;99756.63;1735106;82;21549;-71
2022/04/16 09:02:56;;;;;;;15.30;9.93;;;;;;;18.14;46.75;99755.44;1734429;82;21109;-72
2022/04/16 09:05:26;;;;;;;11.45;9.38;;;;;;;17.89;46.99;99756.87;1734363;82;21042;-70
2022/04/16 09:07:57;;;;;;;14.78;10.65;;;;;;;17.71;47.63;99755.88;1734466;82;21034;-71
2022/04/16 09:10:29;;;;;;;14.68;10.00;;;;;;;17.42;48.21;99758.48;1734558;82;21022;-70
2022/04/16 09:13:01;;;;;;;13.38;9.25;;;;;;;17.03;49.49;99755.02;1734466;82;21081;-72
2022/04/16 09:15:28;;;;;;;;;;;;;;;16.68;50.46;99763.56;1737229;82;22196;-71
2022/04/16 09:17:59;;;;;;;10.93;7.92;;;;;;;16.33;51.23;99766.80;1734183;81;20894;-71
2022/04/16 09:20:32;;;;;;;13.53;7.60;;;;;;;16.00;52.57;99785.34;1734496;82;21134;-71
2022/04/16 09:23:02;;;;;;;14.23;6.05;;;;;;;15.68;54.86;99800.16;1734164;82;21097;-70
2022/04/16 09:25:30;;;;;;;9.03;5.87;;;;;;;15.25;58.62;99802.87;1734613;82;21038;-72
2022/04/16 09:27:58;;;;;;;8.53;5.50;;;;;;;14.75;60.08;99816.53;1716639;82;21101;-71
2022/04/16 09:30:31;;;;;;;8.15;4.85;;;;;;;14.23;62.76;99817.72;1710122;82;21117;-69
2022/04/16 09:32:59;;;;;;;6.10;5.30;;;;;;;13.90;64.38;99823.14;1734378;82;22149;-70
2022/04/16 09:35:36;;;;;;;5.67;4.62;;;;;;;13.64;66.47;99829.38;1734784;82;21638;-71
2022/04/16 09:38:06;;;;;;;8.40;4.60;;;;;;;13.41;67.36;99837.23;1734381;82;21033;-70
2022/04/16 09:40:35;;;;;;;7.80;4.17;;;;;;;13.14;68.25;99833.77;1734707;82;21057;-69
2022/04/16 09:43:07;;;;;;;65.57;32.23;;;;;;;12.70;70.14;99844.84;1734568;82;21157;-72
2022/04/16 09:45:36;;;;;;;19.17;9.65;;;;;;;12.33;71.58;99851.94;1734361;82;21238;-70
2022/04/16 09:48:05;;;;;;;6.47;4.20;;;;;;;12.02;73.92;99866.21;1734573;82;21022;-70
2022/04/16 09:50:32;;;;;;;7.37;4.17;;;;;;;11.68;75.58;99866.41;1734436;82;21038;-71
2022/04/16 09:53:02;;;;;;;12.98;3.42;;;;;;;11.47;75.52;99870.41;1734369;82;21065;-72
2022/04/16 09:55:29;;;;;;;6.62;3.35;;;;;;;11.29;77.24;99873.87;1734746;82;21102;-71
2022/04/16 09:58:03;;;;;;;7.72;3.37;;;;;;;11.15;78.14;99876.26;1734786;82;21226;-71
2022/04/16 10:00:34;;;;;;;5.28;2.80;;;;;;;11.04;78.20;99875.39;1734388;82;21073;-71
2022/04/16 10:03:00;;;;;;;6.05;2.83;;;;;;;10.89;78.40;99888.77;1734593;82;21593;-70
2022/04/16 10:05:26;;;;;;;5.17;3.20;;;;;;;10.73;78.59;99898.24;1734240;82;21590;-70
2022/04/16 10:07:53;;;;;;;5.85;3.22;;;;;;;10.59;78.67;99915.45;1713476;82;21116;-71
2022/04/16 10:10:30;;;;;;;6.12;3.27;;;;;;;10.36;79.03;99915.53;1734297;82;21220;-69
2022/04/16 10:13:03;;;;;;;5.53;3.25;;;;;;;10.06;80.75;99924.51;1733367;82;21633;-70
2022/04/16 10:15:59;;;;;;;18.07;9.85;;;;;;;9.87;80.73;99918.24;1734310;82;21026;-70
2022/04/16 10:18:26;;;;;;;13.75;7.30;;;;;;;9.73;81.61;99921.39;1734248;82;21081;-70
2022/04/16 10:21:03;;;;;;;16.00;7.83;;;;;;;9.61;82.71;99923.98;1713614;82;21120;-71
2022/04/16 10:23:40;;;;;;;5.75;3.25;;;;;;;9.60;83.59;99929.31;1734255;82;21155;-71
2022/04/16 10:26:13;;;;;;;7.72;3.37;;;;;;;9.57;83.77;99924.14;1734238;82;21070;-71
2022/04/16 10:28:55;;;;;;;5.30;3.10;;;;;;;9.50;83.20;99934.05;1733914;82;21130;-71
2022/04/16 10:31:30;;;;;;;7.45;3.42;;;;;;;9.49;83.11;99931.47;1734221;81;21125;-70
2022/04/16 10:34:11;;;;;;;4.15;2.65;;;;;;;9.49;82.49;99937.58;1734548;82;21577;-71
2022/04/16 10:36:39;;;;;;;5.00;2.52;;;;;;;9.50;81.54;99930.11;1733944;82;21158;-70
2022/04/16 10:39:18;;;;;;;5.05;2.50;;;;;;;9.55;79.97;99945.72;1734195;82;20990;-71
2022/04/16 10:42:02;;;;;;;4.22;2.05;;;;;;;9.55;79.66;99943.09;1734260;81;20996;-72
2022/04/16 10:44:43;;;;;;;4.00;2.17;;;;;;;9.58;78.72;99946.45;1734495;82;21011;-69
2022/04/16 10:47:14;;;;;;;6.20;1.72;;;;;;;9.60;77.72;99952.98;1733652;82;21103;-70
2022/04/16 10:49:42;;;;;;;6.55;1.62;;;;;;;9.54;77.34;99954.03;1735120;82;21794;-73
2022/04/16 10:52:19;;;;;;;4.47;1.60;;;;;;;9.57;77.43;99964.89;1734314;82;21010;-71
2022/04/16 10:54:47;;;;;;;2.45;1.35;;;;;;;9.56;77.17;99969.77;1734883;82;21011;-70
2022/04/16 10:57:21;;;;;;;2.72;1.40;;;;;;;9.51;77.46;99965.13;1734652;82;20991;-70
2022/04/16 10:59:49;;;;;;;2.30;1.52;;;;;;;9.54;77.67;99971.13;1740440;81;21005;-70
2022/04/16 11:02:27;;;;;;;1.15;0.95;;;;;;;9.55;78.28;99972.01;1748432;82;21004;-70
2022/04/16 11:05:07;;;;;;;1.37;0.80;;;;;;;9.43;79.11;99979.41;1748377;81;21065;-71
2022/04/16 11:07:38;;;;;;;5.12;0.88;;;;;;;9.26;80.83;99993.56;1748324;81;21093;-69
2022/04/16 11:10:08;;;;;;;1.10;1.00;;;;;;;9.18;82.00;99995.61;1748352;82;21085;-69
2022/04/16 11:13:45;;;;;;;1.77;1.07;;;;;;;9.13;82.87;99994.88;1796812;79;28047;-70
2022/04/16 11:16:12;;;;;;;1.37;1.05;;;;;;;8.96;83.50;99994.98;1734220;82;21482;-70
2022/04/16 11:18:45;;;;;;;1.12;0.93;;;;;;;8.82;86.43;99997.20;1748175;82;21025;-71
2022/04/16 11:21:17;;;;;;;1.30;1.05;;;;;;;8.66;86.83;99998.59;1748571;82;21236;-70
2022/04/16 11:23:52;;;;;;;2.12;1.00;;;;;;;8.51;89.39;99994.23;1748374;82;21069;-71
2022/04/16 11:34:57;;;;;;;1.67;1.15;;;;;;;8.46;86.80;99986.94;1703030;84;21015;-71
2022/04/16 11:37:24;;;;;;;1.12;0.72;;;;;;;8.58;85.79;99985.27;1702138;84;21063;-70
2022/04/16 11:40:02;;;;;;;1.27;0.70;;;;;;;8.68;82.03;99970.53;1702907;84;21071;-73
2022/04/16 11:42:30;;;;;;;2.45;0.75;;;;;;;8.69;81.40;99986.68;1702856;84;21063;-70
2022/04/16 11:44:57;;;;;;;3.12;0.78;;;;;;;8.70;80.25;99985.79;1702884;84;21226;-70
2022/04/16 11:47:28;;;;;;;1.05;0.60;;;;;;;8.68;80.12;99998.95;1702879;84;21653;-72
2022/04/16 11:50:00;;;;;;;1.80;0.72;;;;;;;8.70;80.32;100014.20;1702090;84;21058;-70
2022/04/16 11:52:28;;;;;;;;;;;;;;;8.75;79.70;100020.16;1705286;84;21108;-70
2022/04/16 11:55:16;;;;;;;0.80;0.60;;;;;;;8.84;79.06;100017.71;1702900;84;20207;-70
2022/04/16 11:57:46;;;;;;;22.60;7.67;;;;;;;8.90;77.63;100015.33;1702932;84;21098;-72